ASX136 LIEO-LIPX
Flight info
| Callsign | ASX136 |
|---|---|
| Flight time | 0h 52m |
| Altitude | 32000 |
| Route | BATOX6K/05 BATOX DCT MAMAR DCT XIBIL DCT IVLOX/N0362F180 L995 OSBUL |
| Aircraft | A320/M-SDE1FGIJ1RWY/LB1 |
Departure
| Time | 2026-04-24 11:15 |
|---|---|
| Airport | Olbia Costa Smeralda Airport (LIEO) |
Arrival
| Time | 2026-04-24 12:08 |
|---|---|
| Airport | Verona Villafranca Valerio Catullo Airport (LIPX) |
| Time | Latitude | Longitude | Altitude | Speed | Heading |
|---|---|---|---|---|---|
| 2026-04-24 10:55 | 40.90204 | 9.51571 | 34 ft | 0 kts | 325° |
| 2026-04-24 11:08 | 40.90192 | 9.51582 | 33 ft | 4 kts | 321° |
| 2026-04-24 11:08 | 40.90173 | 9.51606 | 34 ft | 4 kts | 306° |
| 2026-04-24 11:09 | 40.90162 | 9.51636 | 33 ft | 4 kts | 267° |
| 2026-04-24 11:09 | 40.90166 | 9.51654 | 32 ft | 1 kts | 235° |
| 2026-04-24 11:09 | 40.90167 | 9.51657 | 32 ft | 0 kts | 235° |
| 2026-04-24 11:11 | 40.90150 | 9.51627 | 33 ft | 9 kts | 234° |
| 2026-04-24 11:12 | 40.90105 | 9.51539 | 34 ft | 11 kts | 236° |
| 2026-04-24 11:12 | 40.90050 | 9.51490 | 34 ft | 9 kts | 167° |
| 2026-04-24 11:12 | 40.89970 | 9.51510 | 34 ft | 16 kts | 191° |
| 2026-04-24 11:12 | 40.89874 | 9.51387 | 34 ft | 24 kts | 235° |
| 2026-04-24 11:13 | 40.89767 | 9.51182 | 34 ft | 29 kts | 235° |
| 2026-04-24 11:13 | 40.89648 | 9.50958 | 34 ft | 31 kts | 235° |
| 2026-04-24 11:13 | 40.89534 | 9.50741 | 34 ft | 28 kts | 235° |
| 2026-04-24 11:13 | 40.89420 | 9.50528 | 34 ft | 24 kts | 236° |
| 2026-04-24 11:14 | 40.89299 | 9.50460 | 34 ft | 20 kts | 142° |
| 2026-04-24 11:14 | 40.89274 | 9.50625 | 34 ft | 15 kts | 61° |
| 2026-04-24 11:14 | 40.89282 | 9.50643 | 34 ft | 0 kts | 57° |
| 2026-04-24 11:15 | 40.89330 | 9.50736 | 33 ft | 45 kts | 55° |
| 2026-04-24 11:15 | 40.89640 | 9.51329 | 35 ft | 109 kts | 55° |
| 2026-04-24 11:15 | 40.90169 | 9.52344 | 94 ft | 152 kts | 54° |
| 2026-04-24 11:15 | 40.90801 | 9.53427 | 694 ft | 150 kts | 53° |
| 2026-04-24 11:16 | 40.91421 | 9.54530 | 1355 ft | 152 kts | 53° |
| 2026-04-24 11:16 | 40.92042 | 9.55656 | 1985 ft | 152 kts | 54° |
| 2026-04-24 11:16 | 40.92642 | 9.56816 | 2541 ft | 153 kts | 54° |
| 2026-04-24 11:16 | 40.93243 | 9.57989 | 3084 ft | 154 kts | 54° |
| 2026-04-24 11:17 | 40.93874 | 9.59210 | 3422 ft | 171 kts | 54° |
| 2026-04-24 11:17 | 40.94589 | 9.60585 | 3657 ft | 193 kts | 54° |
| 2026-04-24 11:17 | 40.95399 | 9.62132 | 3926 ft | 215 kts | 54° |
| 2026-04-24 11:17 | 40.96287 | 9.63824 | 4288 ft | 234 kts | 54° |
| 2026-04-24 11:18 | 40.97234 | 9.65622 | 5011 ft | 240 kts | 55° |
| 2026-04-24 11:18 | 40.98195 | 9.67445 | 5872 ft | 242 kts | 55° |
| 2026-04-24 11:18 | 40.99157 | 9.69308 | 6584 ft | 253 kts | 57° |
| 2026-04-24 11:18 | 41.00125 | 9.71294 | 7163 ft | 264 kts | 58° |
| 2026-04-24 11:19 | 41.01115 | 9.73370 | 7953 ft | 269 kts | 58° |
| 2026-04-24 11:19 | 41.02117 | 9.75479 | 8764 ft | 273 kts | 57° |
| 2026-04-24 11:19 | 41.03138 | 9.77622 | 9582 ft | 276 kts | 57° |
| 2026-04-24 11:19 | 41.04170 | 9.79782 | 10353 ft | 281 kts | 57° |
| 2026-04-24 11:20 | 41.05255 | 9.82050 | 10675 ft | 302 kts | 57° |
| 2026-04-24 11:20 | 41.06427 | 9.84495 | 10887 ft | 326 kts | 57° |
| 2026-04-24 11:20 | 41.07675 | 9.87095 | 11233 ft | 341 kts | 57° |
| 2026-04-24 11:20 | 41.08962 | 9.89781 | 11860 ft | 347 kts | 57° |
| 2026-04-24 11:21 | 41.10261 | 9.92503 | 12544 ft | 352 kts | 57° |
| 2026-04-24 11:21 | 41.11559 | 9.95225 | 13216 ft | 356 kts | 57° |
| 2026-04-24 11:21 | 41.12888 | 9.98013 | 13881 ft | 360 kts | 57° |
| 2026-04-24 11:21 | 41.14233 | 10.00833 | 14476 ft | 364 kts | 57° |
| 2026-04-24 11:22 | 41.15596 | 10.03687 | 15074 ft | 368 kts | 57° |
| 2026-04-24 11:22 | 41.16973 | 10.06571 | 15678 ft | 371 kts | 57° |
| 2026-04-24 11:22 | 41.18361 | 10.09483 | 16268 ft | 375 kts | 57° |
| 2026-04-24 11:22 | 41.19757 | 10.12418 | 16861 ft | 378 kts | 56° |
| 2026-04-24 11:23 | 41.21184 | 10.15367 | 17447 ft | 381 kts | 53° |
| 2026-04-24 11:23 | 41.22836 | 10.18078 | 18018 ft | 384 kts | 48° |
| 2026-04-24 11:23 | 41.24567 | 10.20794 | 18606 ft | 387 kts | 48° |
| 2026-04-24 11:23 | 41.26314 | 10.23537 | 19116 ft | 390 kts | 49° |
| 2026-04-24 11:24 | 41.28073 | 10.26303 | 19648 ft | 393 kts | 49° |
| 2026-04-24 11:24 | 41.29842 | 10.29086 | 20174 ft | 396 kts | 49° |
| 2026-04-24 11:24 | 41.31626 | 10.31890 | 20697 ft | 398 kts | 49° |
| 2026-04-24 11:24 | 41.33417 | 10.34715 | 21224 ft | 400 kts | 49° |
| 2026-04-24 11:25 | 41.35214 | 10.37554 | 21736 ft | 402 kts | 50° |
| 2026-04-24 11:25 | 41.37021 | 10.40410 | 22230 ft | 404 kts | 50° |
| 2026-04-24 11:25 | 41.38813 | 10.43244 | 22708 ft | 407 kts | 50° |
| 2026-04-24 11:25 | 41.40640 | 10.46134 | 23177 ft | 409 kts | 50° |
| 2026-04-24 11:26 | 41.42476 | 10.49041 | 23633 ft | 411 kts | 50° |
| 2026-04-24 11:26 | 41.44316 | 10.51965 | 24022 ft | 413 kts | 50° |
| 2026-04-24 11:26 | 41.46164 | 10.54903 | 24384 ft | 415 kts | 50° |
| 2026-04-24 11:26 | 41.48024 | 10.57856 | 24756 ft | 416 kts | 51° |
| 2026-04-24 11:27 | 41.49889 | 10.60818 | 25122 ft | 417 kts | 51° |
| 2026-04-24 11:27 | 41.51754 | 10.63789 | 25521 ft | 418 kts | 51° |
| 2026-04-24 11:27 | 41.53596 | 10.66726 | 25876 ft | 419 kts | 51° |
| 2026-04-24 11:27 | 41.55465 | 10.69707 | 26215 ft | 421 kts | 51° |
| 2026-04-24 11:28 | 41.57350 | 10.72710 | 26543 ft | 422 kts | 51° |
| 2026-04-24 11:28 | 41.59240 | 10.75721 | 26864 ft | 424 kts | 51° |
| 2026-04-24 11:28 | 41.61137 | 10.78750 | 27177 ft | 426 kts | 51° |
| 2026-04-24 11:28 | 41.63039 | 10.81796 | 27479 ft | 427 kts | 51° |
| 2026-04-24 11:29 | 41.64943 | 10.84849 | 27782 ft | 429 kts | 51° |
| 2026-04-24 11:29 | 41.66857 | 10.87929 | 28068 ft | 431 kts | 51° |
| 2026-04-24 11:29 | 41.68744 | 10.90973 | 28336 ft | 432 kts | 51° |
| 2026-04-24 11:29 | 41.70665 | 10.94070 | 28618 ft | 433 kts | 51° |
| 2026-04-24 11:30 | 41.72599 | 10.97181 | 28878 ft | 435 kts | 51° |
| 2026-04-24 11:30 | 41.74537 | 11.00295 | 29127 ft | 436 kts | 51° |
| 2026-04-24 11:30 | 41.76584 | 11.03307 | 29361 ft | 439 kts | 44° |
| 2026-04-24 11:30 | 41.79026 | 11.05783 | 29658 ft | 441 kts | 33° |
| 2026-04-24 11:31 | 41.81783 | 11.07580 | 30003 ft | 443 kts | 22° |
| 2026-04-24 11:31 | 41.84767 | 11.08638 | 30336 ft | 446 kts | 11° |
| 2026-04-24 11:31 | 41.87866 | 11.08898 | 30599 ft | 448 kts | 360° |
| 2026-04-24 11:31 | 41.88516 | 11.08848 | 30660 ft | 449 kts | 358° |
| 2026-04-24 11:32 | 41.91622 | 11.08495 | 30947 ft | 448 kts | 358° |
| 2026-04-24 11:32 | 41.94734 | 11.08131 | 31242 ft | 447 kts | 358° |
| 2026-04-24 11:32 | 41.97789 | 11.07776 | 31527 ft | 446 kts | 358° |
| 2026-04-24 11:32 | 42.00874 | 11.07422 | 31819 ft | 445 kts | 358° |
| 2026-04-24 11:33 | 42.03961 | 11.07074 | 32090 ft | 445 kts | 358° |
| 2026-04-24 11:33 | 42.07046 | 11.06731 | 32170 ft | 445 kts | 358° |
| 2026-04-24 11:33 | 42.13203 | 11.06047 | 32177 ft | 443 kts | 358° |
| 2026-04-24 11:34 | 42.19347 | 11.05354 | 32180 ft | 443 kts | 358° |
| 2026-04-24 11:34 | 42.25481 | 11.04642 | 32179 ft | 443 kts | 358° |
| 2026-04-24 11:35 | 42.31586 | 11.03939 | 32180 ft | 443 kts | 358° |
| 2026-04-24 11:35 | 42.37729 | 11.03237 | 32180 ft | 443 kts | 358° |
| 2026-04-24 11:36 | 42.43868 | 11.02535 | 32179 ft | 443 kts | 358° |
| 2026-04-24 11:36 | 42.50015 | 11.01824 | 32169 ft | 443 kts | 358° |
| 2026-04-24 11:37 | 42.56115 | 11.01116 | 32170 ft | 443 kts | 358° |
| 2026-04-24 11:37 | 42.62257 | 11.00412 | 32173 ft | 443 kts | 358° |
| 2026-04-24 11:38 | 42.68396 | 10.99701 | 32174 ft | 443 kts | 358° |
| 2026-04-24 11:38 | 42.74539 | 10.98994 | 32162 ft | 443 kts | 358° |
| 2026-04-24 11:39 | 42.80662 | 10.98115 | 32168 ft | 445 kts | 351° |
| 2026-04-24 11:39 | 42.86686 | 10.96300 | 32165 ft | 446 kts | 350° |
| 2026-04-24 11:40 | 42.92738 | 10.94462 | 32165 ft | 446 kts | 350° |
| 2026-04-24 11:40 | 42.98791 | 10.92630 | 32178 ft | 445 kts | 351° |
| 2026-04-24 11:41 | 43.04836 | 10.90801 | 32171 ft | 445 kts | 351° |
| 2026-04-24 11:41 | 43.10842 | 10.88985 | 32176 ft | 445 kts | 351° |
| 2026-04-24 11:42 | 43.16877 | 10.87157 | 32173 ft | 444 kts | 351° |
| 2026-04-24 11:42 | 43.22916 | 10.85318 | 32176 ft | 444 kts | 351° |
| 2026-04-24 11:43 | 43.28950 | 10.83473 | 32175 ft | 444 kts | 351° |
| 2026-04-24 11:43 | 43.34979 | 10.81628 | 32169 ft | 444 kts | 351° |
| 2026-04-24 11:44 | 43.40967 | 10.79793 | 32167 ft | 444 kts | 351° |
| 2026-04-24 11:44 | 43.46991 | 10.77941 | 32159 ft | 443 kts | 351° |
| 2026-04-24 11:45 | 43.53019 | 10.76088 | 32158 ft | 443 kts | 351° |
| 2026-04-24 11:45 | 43.59035 | 10.74236 | 32154 ft | 443 kts | 351° |
| 2026-04-24 11:46 | 43.65010 | 10.72395 | 32160 ft | 443 kts | 351° |
| 2026-04-24 11:46 | 43.71023 | 10.70529 | 32159 ft | 443 kts | 351° |
| 2026-04-24 11:47 | 43.77035 | 10.68663 | 32153 ft | 443 kts | 351° |
| 2026-04-24 11:47 | 43.83047 | 10.66793 | 32160 ft | 443 kts | 351° |
| 2026-04-24 11:48 | 43.89024 | 10.64931 | 32173 ft | 443 kts | 351° |
| 2026-04-24 11:48 | 43.95039 | 10.63051 | 32170 ft | 443 kts | 351° |
| 2026-04-24 11:49 | 44.01051 | 10.61165 | 32195 ft | 443 kts | 351° |
| 2026-04-24 11:49 | 44.04035 | 10.60227 | 31567 ft | 436 kts | 351° |
| 2026-04-24 11:49 | 44.05997 | 10.59613 | 30608 ft | 437 kts | 351° |
| 2026-04-24 11:50 | 44.08974 | 10.58687 | 28874 ft | 441 kts | 350° |
| 2026-04-24 11:50 | 44.11988 | 10.57748 | 27524 ft | 445 kts | 350° |
| 2026-04-24 11:50 | 44.14990 | 10.56805 | 26827 ft | 440 kts | 350° |
| 2026-04-24 11:50 | 44.17960 | 10.55865 | 26139 ft | 435 kts | 350° |
| 2026-04-24 11:51 | 44.21851 | 10.54632 | 25265 ft | 430 kts | 350° |
| 2026-04-24 11:51 | 44.23811 | 10.54010 | 24834 ft | 427 kts | 350° |
| 2026-04-24 11:51 | 44.26695 | 10.53094 | 24215 ft | 424 kts | 350° |
| 2026-04-24 11:51 | 44.29525 | 10.52197 | 23558 ft | 420 kts | 350° |
| 2026-04-24 11:52 | 44.32364 | 10.51300 | 22864 ft | 417 kts | 350° |
| 2026-04-24 11:52 | 44.35184 | 10.50410 | 22220 ft | 414 kts | 350° |
| 2026-04-24 11:52 | 44.37981 | 10.49527 | 21573 ft | 411 kts | 349° |
| 2026-04-24 11:52 | 44.40762 | 10.48652 | 20968 ft | 408 kts | 348° |
| 2026-04-24 11:53 | 44.43521 | 10.47780 | 20378 ft | 405 kts | 349° |
| 2026-04-24 11:53 | 44.46256 | 10.46909 | 19827 ft | 402 kts | 349° |
| 2026-04-24 11:53 | 44.48977 | 10.46038 | 19292 ft | 400 kts | 349° |
| 2026-04-24 11:53 | 44.51682 | 10.45172 | 18765 ft | 398 kts | 349° |
| 2026-04-24 11:54 | 44.54370 | 10.44315 | 18202 ft | 395 kts | 349° |
| 2026-04-24 11:54 | 44.57010 | 10.43476 | 17650 ft | 392 kts | 349° |
| 2026-04-24 11:54 | 44.59657 | 10.42633 | 17122 ft | 389 kts | 349° |
| 2026-04-24 11:54 | 44.62283 | 10.41795 | 16603 ft | 385 kts | 349° |
| 2026-04-24 11:55 | 44.64881 | 10.40964 | 16117 ft | 381 kts | 349° |
| 2026-04-24 11:55 | 44.67454 | 10.40138 | 15627 ft | 378 kts | 349° |
| 2026-04-24 11:55 | 44.69998 | 10.39306 | 15118 ft | 375 kts | 347° |
| 2026-04-24 11:55 | 44.72444 | 10.38052 | 14639 ft | 373 kts | 336° |
| 2026-04-24 11:56 | 44.74677 | 10.36211 | 14172 ft | 372 kts | 329° |
| 2026-04-24 11:56 | 44.76837 | 10.34238 | 13637 ft | 368 kts | 329° |
| 2026-04-24 11:56 | 44.79084 | 10.32692 | 13123 ft | 361 kts | 344° |
| 2026-04-24 11:56 | 44.81527 | 10.32067 | 12592 ft | 356 kts | 359° |
| 2026-04-24 11:57 | 44.83970 | 10.32386 | 12046 ft | 352 kts | 13° |
| 2026-04-24 11:57 | 44.86242 | 10.33614 | 11498 ft | 350 kts | 28° |
| 2026-04-24 11:57 | 44.88239 | 10.35541 | 11044 ft | 346 kts | 35° |
| 2026-04-24 11:57 | 44.90137 | 10.37514 | 10913 ft | 331 kts | 35° |
| 2026-04-24 11:58 | 44.91952 | 10.39400 | 10801 ft | 317 kts | 35° |
| 2026-04-24 11:58 | 44.93694 | 10.41214 | 10673 ft | 305 kts | 35° |
| 2026-04-24 11:58 | 44.95372 | 10.42965 | 10551 ft | 294 kts | 35° |
| 2026-04-24 11:58 | 44.96974 | 10.44623 | 10383 ft | 285 kts | 32° |
| 2026-04-24 11:59 | 44.98695 | 10.45911 | 9840 ft | 279 kts | 18° |
| 2026-04-24 11:59 | 45.00564 | 10.46666 | 9426 ft | 278 kts | 13° |
| 2026-04-24 11:59 | 45.02429 | 10.47376 | 9057 ft | 277 kts | 13° |
| 2026-04-24 11:59 | 45.04282 | 10.48099 | 8673 ft | 276 kts | 13° |
| 2026-04-24 12:00 | 45.06129 | 10.48825 | 8284 ft | 275 kts | 14° |
| 2026-04-24 12:00 | 45.07968 | 10.49547 | 7913 ft | 274 kts | 13° |
| 2026-04-24 12:00 | 45.09793 | 10.50265 | 7436 ft | 270 kts | 13° |
| 2026-04-24 12:00 | 45.11603 | 10.50976 | 6770 ft | 270 kts | 13° |
| 2026-04-24 12:01 | 45.13378 | 10.51816 | 6109 ft | 270 kts | 23° |
| 2026-04-24 12:01 | 45.14937 | 10.53263 | 5466 ft | 275 kts | 40° |
| 2026-04-24 12:01 | 45.16287 | 10.55191 | 5059 ft | 276 kts | 44° |
| 2026-04-24 12:01 | 45.17602 | 10.57111 | 4900 ft | 265 kts | 43° |
| 2026-04-24 12:02 | 45.18867 | 10.58933 | 4769 ft | 254 kts | 43° |
| 2026-04-24 12:02 | 45.20082 | 10.60677 | 4630 ft | 243 kts | 43° |
| 2026-04-24 12:02 | 45.21250 | 10.62357 | 4468 ft | 236 kts | 43° |
| 2026-04-24 12:02 | 45.22381 | 10.63985 | 4341 ft | 229 kts | 43° |
| 2026-04-24 12:03 | 45.23481 | 10.65569 | 4210 ft | 221 kts | 42° |
| 2026-04-24 12:03 | 45.24536 | 10.67090 | 4105 ft | 213 kts | 42° |
| 2026-04-24 12:03 | 45.25574 | 10.68586 | 3876 ft | 213 kts | 43° |
| 2026-04-24 12:03 | 45.26588 | 10.70049 | 3625 ft | 209 kts | 43° |
| 2026-04-24 12:04 | 45.27602 | 10.71513 | 3333 ft | 206 kts | 44° |
| 2026-04-24 12:04 | 45.28603 | 10.72958 | 3057 ft | 204 kts | 44° |
| 2026-04-24 12:04 | 45.29590 | 10.74384 | 2792 ft | 200 kts | 45° |
| 2026-04-24 12:04 | 45.30544 | 10.75765 | 2519 ft | 190 kts | 45° |
| 2026-04-24 12:05 | 45.31442 | 10.77064 | 2318 ft | 178 kts | 45° |
| 2026-04-24 12:05 | 45.32267 | 10.78258 | 2058 ft | 161 kts | 46° |
| 2026-04-24 12:05 | 45.33019 | 10.79346 | 1855 ft | 152 kts | 45° |
| 2026-04-24 12:05 | 45.33750 | 10.80406 | 1649 ft | 149 kts | 46° |
| 2026-04-24 12:06 | 45.34473 | 10.81452 | 1461 ft | 148 kts | 46° |
| 2026-04-24 12:06 | 45.35192 | 10.82495 | 1264 ft | 147 kts | 45° |
| 2026-04-24 12:06 | 45.35911 | 10.83537 | 1069 ft | 147 kts | 46° |
| 2026-04-24 12:06 | 45.36625 | 10.84573 | 869 ft | 148 kts | 46° |
| 2026-04-24 12:07 | 45.37343 | 10.85616 | 678 ft | 148 kts | 45° |
| 2026-04-24 12:07 | 45.38069 | 10.86657 | 489 ft | 148 kts | 43° |
| 2026-04-24 12:07 | 45.38781 | 10.87700 | 303 ft | 147 kts | 46° |
| 2026-04-24 12:07 | 45.39442 | 10.88659 | 238 ft | 118 kts | 46° |
| 2026-04-24 12:08 | 45.39892 | 10.89319 | 241 ft | 68 kts | 46° |
| 2026-04-24 12:08 | 45.40166 | 10.89724 | 247 ft | 40 kts | 46° |
| 2026-04-24 12:08 | 45.40287 | 10.89982 | 246 ft | 25 kts | 78° |
| 2026-04-24 12:08 | 45.40322 | 10.90184 | 243 ft | 21 kts | 75° |
| 2026-04-24 12:09 | 45.40390 | 10.90368 | 242 ft | 20 kts | 46° |
| 2026-04-24 12:09 | 45.40445 | 10.90485 | 242 ft | 10 kts | 117° |
| 2026-04-24 12:09 | 45.40411 | 10.90537 | 242 ft | 0 kts | 134° |